Current Weather

Lawrence J Timmerman

Milwaukee, Wisconsin (KMWC)

Report from: Thursday, April 25, 2024 12:15 AM CDT
Current time: Thursday, April 25, 2024 12:44 AM CDT

Nearby weather – Weather history – Daily summaries
Weather forecast

Temperature0.0°C (32.0°F)
Dew point-3.0°C (26.6°F)
Winds Calm
Visibility10 mi. (16.1 km)
Clouds Sky clear
Altimeter30.33 in.Hg (1027 mB)
Relative humidity80 %
Density altitude-2,228 ft. (-679 m)
Remarks Fully automated report
Automated weather observing station with precipitation discriminator
Flight conditions Visual Meteorological Conditions
Raw dataKMWC 250515Z AUTO 00000KT 10SM CLR 00/M03 A3033 RMK AO2
An error has occurred. This application may no longer respond until reloaded. Reload 🗙